Decoded Metar for KALS (ALAMOSA in CO, USA) (IATA:ALS) | Meteo·Mobile Aviation Weather
aviador You're here:

KALS Decoded Metar

ALAMOSA in CO, USA
Report Time2018-11-18 07:52:00
UTC Time2018-11-18 08:39:52
Flight Rules vfr VFR
Wind110° at 04 kt
W.Decomp.*RWY 02: 0.6 kt HW 4.0 kt RCW
W.Rank110° ranks 12
Current wind is below 110° avg. (7.2)
Visibility9999 m
Phenomena:N/A
Clouds:Few 110 Hf
Expected CloudBase > 800 ft AGL from Temp-Dew spread
CeilingNone
Temp-7°C (ISA -7)
Dew Point-9°C (86% RH)
AAT-11.4°C
QNH1018 hPa
Density Alt6,581 ft
Elevation7,543 ft
Report Wrong Elevation
Raw Report
KALS 180752Z AUTO 11004KT 10SM FEW110 M07/M09 A3007 RMK AO2 SLP181
T10671094 $=

Extra information for KALS:More info

Metar Taf Metar & Taf Last 4 Metars F.Rules Stats Wind Profile Meteogram Temp Stats Airport Information Weather charts Add Link Nearby VenuesMetar ALERT Operation Metar Decoded Social comments

AIRNAV info for KALS